Natividade, Brazil
Current Conditions -  °F | °C
As of 10:00 AM on Tuesday 27 Jan 2015 (Local Time) from SBCP Reporting Station
Clear Clear  
Wind Chill: 86°   Ceiling: Unl
Heat Index: 93°   Visibility: 6mi
Dew Point: 73°   Wind: 5mph
Humidity: 66%   Direction: 10°N
Pressure: 29.94"   Gusts: NA
Location:  21.05°S, 41.99°W
Report Text: SBCP 271200Z 01004KT CAVOK 30/23 Q1014
Loading
Personal Weather Stations






























Interactive Weather Map New forecast layout! Learn more

10-Day Weather Forecast

Advertisements
Track Severe Weather on mobile